createdAt,value
2023-01-05T00:00:49.089Z,58.03
2023-01-05T00:02:24.418Z,58.09
2023-01-05T00:03:56.396Z,57.89
2023-01-05T00:05:28.064Z,58.15
2023-01-05T00:06:59.609Z,58.22
2023-01-05T00:08:36.632Z,58.31
2023-01-05T00:10:28.855Z,58.23
2023-01-05T00:12:19.200Z,58.36
2023-01-05T00:14:10.029Z,58.28
2023-01-05T00:16:01.801Z,58.09
2023-01-05T00:17:52.123Z,58.37
2023-01-05T00:19:42.051Z,58.43
2023-01-05T00:21:32.292Z,58.09
2023-01-05T00:23:04.466Z,57.95
2023-01-05T00:24:36.091Z,58.34
2023-01-05T00:26:07.583Z,58.17
2023-01-05T00:27:40.011Z,58.31
2023-01-05T00:29:11.832Z,58.12
2023-01-05T00:30:45.123Z,58.41
2023-01-05T00:32:16.755Z,57.87
2023-01-05T00:33:48.743Z,58.12
2023-01-05T00:35:20.662Z,58.35
2023-01-05T00:36:52.252Z,58.65
2023-01-05T00:38:25.153Z,58.44
2023-01-05T00:39:58.744Z,58.56
2023-01-05T00:41:31.163Z,58.40
2023-01-05T00:43:05.663Z,58.29
2023-01-05T00:44:39.730Z,58.27
2023-01-05T00:46:15.267Z,58.17
2023-01-05T00:47:47.370Z,58.25
2023-01-05T00:49:18.993Z,58.37
2023-01-05T00:50:50.639Z,58.50
2023-01-05T00:52:22.183Z,58.22
2023-01-05T00:53:53.745Z,58.52
2023-01-05T00:55:25.682Z,58.39
2023-01-05T00:56:57.405Z,58.60
2023-01-05T00:58:28.959Z,58.60
2023-01-05T01:00:02.448Z,58.56
2023-01-05T01:01:34.114Z,58.47
2023-01-05T01:03:05.750Z,58.60
2023-01-05T01:04:37.711Z,58.48
2023-01-05T01:06:09.315Z,58.88
2023-01-05T01:07:40.904Z,58.71
2023-01-05T01:09:12.489Z,58.50
2023-01-05T01:10:44.023Z,58.95
2023-01-05T01:12:15.611Z,58.80
2023-01-05T01:13:47.215Z,58.61
2023-01-05T01:15:18.699Z,58.29
2023-01-05T01:16:50.615Z,58.44
2023-01-05T01:18:23.483Z,58.38
2023-01-05T01:19:55.442Z,58.58
2023-01-05T01:21:27.024Z,58.76
2023-01-05T01:23:00.532Z,58.71
2023-01-05T01:24:32.268Z,58.70
2023-01-05T01:26:04.728Z,58.72
2023-01-05T01:27:36.279Z,58.82
2023-01-05T01:29:07.911Z,59.01
2023-01-05T01:30:39.786Z,59.09
2023-01-05T01:32:11.303Z,59.19
2023-01-05T01:33:45.409Z,58.97
2023-01-05T01:35:19.186Z,59.03
2023-01-05T01:36:53.574Z,59.25
2023-01-05T01:38:26.933Z,59.51
2023-01-05T01:39:58.941Z,59.19
2023-01-05T01:41:30.587Z,59.06
2023-01-05T01:43:04.875Z,58.83
2023-01-05T01:44:49.598Z,59.27
2023-01-05T01:46:22.626Z,58.66
2023-01-05T01:47:58.398Z,59.20
2023-01-05T01:49:30.040Z,58.69
2023-01-05T01:51:08.187Z,58.96
2023-01-05T01:52:40.835Z,58.60
2023-01-05T01:54:13.837Z,58.49
2023-01-05T01:55:45.921Z,58.56
2023-01-05T01:57:17.745Z,58.21
2023-01-05T01:58:49.552Z,58.44
2023-01-05T02:00:22.172Z,58.21
2023-01-05T02:01:54.500Z,58.12
2023-01-05T02:03:26.931Z,57.92
2023-01-05T02:05:01.479Z,57.99
2023-01-05T02:06:35.138Z,58.02
2023-01-05T02:08:13.767Z,58.40
2023-01-05T02:09:45.442Z,58.18
2023-01-05T02:11:35.802Z,58.37
2023-01-05T02:13:20.057Z,58.26
2023-01-05T02:15:00.321Z,58.44
2023-01-05T02:16:32.008Z,58.75
2023-01-05T02:18:03.613Z,58.85
2023-01-05T02:19:50.187Z,58.70
2023-01-05T02:21:42.236Z,58.71
2023-01-05T02:23:32.407Z,58.71
2023-01-05T02:25:22.203Z,58.67
2023-01-05T02:26:56.372Z,58.49
2023-01-05T02:28:43.256Z,58.89
2023-01-05T02:30:34.964Z,59.04
2023-01-05T02:32:06.604Z,59.02
2023-01-05T02:33:40.568Z,58.85
2023-01-05T02:35:15.072Z,59.15
2023-01-05T02:36:46.500Z,58.95
2023-01-05T02:38:38.545Z,59.31
2023-01-05T02:40:21.702Z,59.28
2023-01-05T02:42:03.712Z,59.58
2023-01-05T02:43:35.408Z,59.29
2023-01-05T02:45:07.307Z,59.09
2023-01-05T02:46:38.982Z,59.08
2023-01-05T02:48:10.447Z,59.20
2023-01-05T02:49:42.016Z,59.03
2023-01-05T02:51:17.616Z,59.32
2023-01-05T02:52:51.784Z,59.09
2023-01-05T02:54:35.476Z,59.16
2023-01-05T02:56:08.467Z,59.16
2023-01-05T02:57:50.570Z,59.06
2023-01-05T02:59:24.028Z,59.02
2023-01-05T03:01:03.153Z,58.90
2023-01-05T03:02:34.945Z,58.77
2023-01-05T03:04:09.253Z,59.16
2023-01-05T03:05:45.137Z,58.68
2023-01-05T03:07:18.207Z,58.96
2023-01-05T03:08:52.995Z,58.98
2023-01-05T03:10:43.260Z,58.86
2023-01-05T03:12:51.255Z,58.71
2023-01-05T03:14:27.466Z,58.89
2023-01-05T03:16:02.191Z,58.84
2023-01-05T03:17:35.335Z,58.97
2023-01-05T03:19:33.918Z,59.37
2023-01-05T03:21:05.499Z,59.16
2023-01-05T03:22:55.647Z,59.54
2023-01-05T03:24:45.948Z,59.26
2023-01-05T03:26:36.221Z,59.16
2023-01-05T03:28:27.506Z,59.36
2023-01-05T03:30:17.461Z,59.34
2023-01-05T03:32:09.744Z,59.61
2023-01-05T03:34:05.728Z,59.89
2023-01-05T03:35:38.677Z,59.50
2023-01-05T03:37:22.220Z,59.77
2023-01-05T03:38:53.879Z,59.51
2023-01-05T03:40:26.922Z,59.80
2023-01-05T03:41:58.434Z,59.60
2023-01-05T03:43:29.901Z,59.66
2023-01-05T03:45:01.523Z,59.80
2023-01-05T03:46:33.458Z,59.77
2023-01-05T03:48:05.291Z,59.81
2023-01-05T03:49:37.225Z,60.17
2023-01-05T03:51:08.830Z,59.85
2023-01-05T03:52:40.508Z,59.87
2023-01-05T03:54:12.574Z,59.96
2023-01-05T03:55:44.380Z,59.82
2023-01-05T03:57:16.255Z,59.90
2023-01-05T03:58:47.883Z,59.75
2023-01-05T04:00:20.775Z,59.64
2023-01-05T04:01:52.503Z,59.87
2023-01-05T04:03:31.082Z,60.10
2023-01-05T04:05:03.520Z,59.63
2023-01-05T04:06:35.148Z,59.68
2023-01-05T04:08:06.769Z,60.18
2023-01-05T04:09:38.339Z,60.02
2023-01-05T04:11:10.665Z,59.97
2023-01-05T04:12:42.179Z,59.92
2023-01-05T04:14:13.629Z,59.90
2023-01-05T04:15:45.221Z,59.75
2023-01-05T04:17:17.132Z,59.73
2023-01-05T04:18:48.967Z,59.52
2023-01-05T04:20:20.956Z,59.62
2023-01-05T04:21:53.182Z,59.47
2023-01-05T04:23:25.134Z,59.41
2023-01-05T04:24:56.955Z,59.57
2023-01-05T04:26:28.471Z,59.37
2023-01-05T04:28:00.124Z,59.58
2023-01-05T04:29:31.686Z,59.32
2023-01-05T04:31:03.364Z,59.16
2023-01-05T04:32:34.967Z,59.46
2023-01-05T04:34:09.200Z,59.06
2023-01-05T04:35:40.971Z,59.24
2023-01-05T04:37:13.120Z,59.32
2023-01-05T04:38:44.591Z,59.25
2023-01-05T04:40:16.354Z,58.93
2023-01-05T04:41:48.914Z,58.84
2023-01-05T04:43:20.438Z,59.13
2023-01-05T04:44:52.391Z,59.12
2023-01-05T04:46:24.039Z,59.01
2023-01-05T04:47:55.624Z,59.29
2023-01-05T04:49:27.233Z,59.42
2023-01-05T04:50:59.221Z,59.49
2023-01-05T04:52:30.740Z,59.81
2023-01-05T04:54:02.415Z,59.76
2023-01-05T04:55:33.926Z,59.71
2023-01-05T04:57:05.640Z,59.72
2023-01-05T04:58:37.573Z,59.71
2023-01-05T05:00:09.421Z,59.93
2023-01-05T05:01:41.609Z,59.73
2023-01-05T05:03:13.536Z,59.93
2023-01-05T05:04:45.737Z,59.70
2023-01-05T05:06:17.642Z,59.71
2023-01-05T05:07:49.249Z,59.51
2023-01-05T05:09:21.713Z,59.50
2023-01-05T05:10:53.324Z,59.45
2023-01-05T05:12:24.928Z,59.50
2023-01-05T05:13:56.455Z,58.98
2023-01-05T05:15:28.068Z,58.80
2023-01-05T05:16:59.635Z,58.90
2023-01-05T05:18:31.144Z,58.84
2023-01-05T05:20:02.821Z,58.83
2023-01-05T05:21:34.376Z,58.65
2023-01-05T05:23:06.207Z,58.39
2023-01-05T05:24:37.837Z,58.50
2023-01-05T05:26:09.414Z,58.56
2023-01-05T05:27:40.953Z,58.57
2023-01-05T05:29:12.511Z,58.69
2023-01-05T05:30:44.114Z,58.89
2023-01-05T05:32:15.738Z,58.50
2023-01-05T05:33:47.339Z,58.64
2023-01-05T05:35:18.881Z,58.64
2023-01-05T05:36:50.373Z,58.60
2023-01-05T05:38:21.888Z,58.71
2023-01-05T05:39:53.394Z,58.88
2023-01-05T05:41:25.112Z,58.64
2023-01-05T05:42:56.748Z,58.69
2023-01-05T05:44:28.230Z,58.71
2023-01-05T05:45:59.729Z,58.50
2023-01-05T05:47:31.177Z,58.31
2023-01-05T05:49:02.827Z,58.55
2023-01-05T05:50:34.644Z,58.57
2023-01-05T05:52:06.112Z,58.07
2023-01-05T05:53:37.652Z,58.37
2023-01-05T05:55:09.401Z,58.38
2023-01-05T05:56:50.618Z,58.26
2023-01-05T05:58:22.201Z,58.26
2023-01-05T05:59:53.625Z,58.18
2023-01-05T06:01:25.362Z,58.35
2023-01-05T06:03:01.976Z,58.33
2023-01-05T06:04:34.507Z,58.14
2023-01-05T06:06:07.005Z,58.41
2023-01-05T06:07:39.444Z,57.96
2023-01-05T06:09:16.270Z,58.35
2023-01-05T06:10:50.913Z,58.29
2023-01-05T06:12:22.705Z,58.52
2023-01-05T06:13:54.248Z,58.91
2023-01-05T06:15:26.126Z,58.67
2023-01-05T06:16:57.856Z,59.22
2023-01-05T06:18:29.461Z,59.14
2023-01-05T06:20:00.985Z,59.44
2023-01-05T06:21:32.630Z,59.51
2023-01-05T06:23:04.377Z,59.24
2023-01-05T06:24:35.960Z,59.42
2023-01-05T06:26:07.672Z,59.42
2023-01-05T06:27:39.944Z,59.57
2023-01-05T06:29:12.073Z,59.43
2023-01-05T06:30:43.717Z,59.50
2023-01-05T06:32:15.271Z,59.31
2023-01-05T06:33:50.410Z,59.79
2023-01-05T06:35:22.277Z,59.88
2023-01-05T06:36:56.739Z,59.71
2023-01-05T06:38:32.388Z,59.77
2023-01-05T06:40:04.085Z,59.89
2023-01-05T06:41:35.590Z,59.59
2023-01-05T06:43:07.439Z,59.50
2023-01-05T06:44:39.338Z,59.70
2023-01-05T06:46:10.957Z,59.13
2023-01-05T06:47:43.127Z,59.22
2023-01-05T06:49:14.945Z,59.17
2023-01-05T06:50:46.645Z,59.04
2023-01-05T06:52:18.138Z,58.86
2023-01-05T06:53:49.767Z,58.80
2023-01-05T06:55:22.020Z,58.67
2023-01-05T06:56:53.785Z,58.62
2023-01-05T06:58:35.603Z,58.75
2023-01-05T07:00:15.384Z,58.58
2023-01-05T07:01:47.109Z,58.65
2023-01-05T07:03:24.645Z,58.47
2023-01-05T07:05:16.784Z,58.43
2023-01-05T07:06:48.522Z,58.17
2023-01-05T07:08:20.099Z,58.25
2023-01-05T07:09:51.737Z,58.44
2023-01-05T07:11:23.345Z,57.70
2023-01-05T07:12:55.021Z,58.08
2023-01-05T07:14:30.843Z,58.60
2023-01-05T07:16:10.659Z,57.88
2023-01-05T07:17:45.714Z,58.50
2023-01-05T07:19:27.674Z,58.45
2023-01-05T07:21:06.596Z,58.16
2023-01-05T07:22:38.945Z,58.08
2023-01-05T07:24:12.107Z,58.57
2023-01-05T07:25:44.537Z,58.62
2023-01-05T07:27:17.837Z,58.27
2023-01-05T07:28:49.504Z,58.41
2023-01-05T07:30:21.238Z,58.58
2023-01-05T07:31:53.829Z,58.71
2023-01-05T07:33:33.439Z,58.43
2023-01-05T07:35:08.754Z,58.76
2023-01-05T07:36:43.719Z,58.71
2023-01-05T07:38:15.359Z,58.29
2023-01-05T07:39:49.595Z,58.57
2023-01-05T07:41:21.343Z,58.32
2023-01-05T07:42:54.652Z,58.05
2023-01-05T07:44:26.421Z,58.24
2023-01-05T07:46:01.344Z,58.28
2023-01-05T07:47:34.203Z,57.94
2023-01-05T07:49:07.193Z,57.99
2023-01-05T07:50:39.909Z,58.58
2023-01-05T07:52:12.336Z,58.78
2023-01-05T07:53:44.890Z,58.92
2023-01-05T07:55:16.672Z,58.17
2023-01-05T07:57:17.591Z,58.21
2023-01-05T07:59:01.559Z,58.43
2023-01-05T08:00:50.539Z,58.53
2023-01-05T08:02:23.869Z,58.28
2023-01-05T08:03:57.593Z,58.56
2023-01-05T08:05:38.947Z,58.52
2023-01-05T08:07:12.379Z,58.69
2023-01-05T08:08:44.081Z,58.26
2023-01-05T08:10:37.752Z,59.12
2023-01-05T08:12:12.806Z,58.69
2023-01-05T08:14:08.497Z,58.35
2023-01-05T08:15:42.658Z,58.75
2023-01-05T08:17:17.929Z,58.62
2023-01-05T08:18:50.302Z,59.22
2023-01-05T08:20:21.833Z,58.90
2023-01-05T08:21:59.939Z,59.05
2023-01-05T08:25:20.530Z,58.81
2023-01-05T08:27:01.651Z,58.60
2023-01-05T08:28:39.861Z,59.27
2023-01-05T08:30:19.384Z,59.15
2023-01-05T08:32:23.812Z,59.22
2023-01-05T08:34:01.884Z,58.76
2023-01-05T08:35:40.678Z,58.21
2023-01-05T08:37:17.283Z,58.59
2023-01-05T08:39:08.700Z,58.47
2023-01-05T08:40:43.761Z,58.61
2023-01-05T08:42:15.379Z,58.03
2023-01-05T08:43:54.806Z,58.21
2023-01-05T08:45:26.687Z,57.93
2023-01-05T08:47:06.252Z,58.06
2023-01-05T08:48:40.062Z,57.72
2023-01-05T08:50:14.886Z,57.67
2023-01-05T08:51:49.208Z,57.49
2023-01-05T08:53:20.995Z,57.42
2023-01-05T08:54:54.334Z,57.31
2023-01-05T08:56:28.796Z,57.15
2023-01-05T08:58:06.737Z,57.09
2023-01-05T08:59:38.895Z,56.95
2023-01-05T09:01:17.911Z,57.01
2023-01-05T09:02:56.268Z,57.04
2023-01-05T09:04:27.950Z,56.73
2023-01-05T09:06:04.912Z,56.91
2023-01-05T09:07:38.617Z,56.67
2023-01-05T09:09:12.840Z,56.72
2023-01-05T09:10:44.565Z,56.86
2023-01-05T09:12:17.473Z,56.69
2023-01-05T09:13:50.336Z,56.42
2023-01-05T09:15:22.035Z,56.06
2023-01-05T09:17:09.641Z,56.08
2023-01-05T09:18:41.954Z,55.90
2023-01-05T09:20:13.536Z,55.67
2023-01-05T09:21:45.150Z,55.35
2023-01-05T09:23:16.765Z,55.56
2023-01-05T09:24:48.532Z,55.34
2023-01-05T09:26:20.148Z,55.50
2023-01-05T09:27:51.674Z,55.24
2023-01-05T09:29:29.074Z,55.10
2023-01-05T09:31:00.617Z,55.16
2023-01-05T09:32:37.291Z,54.88
2023-01-05T09:34:08.863Z,54.90
2023-01-05T09:35:40.449Z,54.81
2023-01-05T09:37:13.343Z,54.59
2023-01-05T09:38:50.900Z,54.50
2023-01-05T09:40:31.723Z,54.81
2023-01-05T09:42:06.339Z,54.78
2023-01-05T09:43:38.281Z,54.36
2023-01-05T09:45:11.184Z,54.52
2023-01-05T09:46:43.536Z,54.55
2023-01-05T09:48:15.522Z,54.82
2023-01-05T09:49:47.665Z,54.69
2023-01-05T09:51:19.202Z,54.57
2023-01-05T09:52:51.736Z,54.51
2023-01-05T09:54:26.120Z,54.62
2023-01-05T09:55:58.073Z,54.59
2023-01-05T09:57:30.327Z,54.91
2023-01-05T09:59:05.052Z,54.80
2023-01-05T10:00:37.583Z,54.86
2023-01-05T10:02:21.445Z,54.46
2023-01-05T10:04:04.882Z,54.33
2023-01-05T10:05:43.464Z,54.10
2023-01-05T10:07:19.994Z,54.19
2023-01-05T10:08:57.426Z,53.82
2023-01-05T10:10:45.755Z,53.76
2023-01-05T10:12:46.633Z,53.63
2023-01-05T10:14:20.341Z,53.47
2023-01-05T10:15:52.881Z,53.60
2023-01-05T10:17:41.065Z,53.58
2023-01-05T10:19:13.900Z,53.58
2023-01-05T10:20:46.882Z,53.71
2023-01-05T10:22:19.865Z,53.40
2023-01-05T10:24:16.631Z,53.36
2023-01-05T10:26:14.534Z,53.41
2023-01-05T10:28:10.124Z,53.26
2023-01-05T10:29:50.181Z,53.27
2023-01-05T10:31:32.124Z,52.83
2023-01-05T10:33:39.751Z,53.11
2023-01-05T10:35:41.694Z,52.66
2023-01-05T10:37:44.970Z,52.93
2023-01-05T10:39:29.154Z,52.34
2023-01-05T10:41:12.987Z,52.19
2023-01-05T10:42:55.819Z,52.04
2023-01-05T10:44:27.406Z,51.97
2023-01-05T10:46:30.678Z,52.17
2023-01-05T10:47:51.377Z,51.93
2023-01-05T10:49:27.308Z,51.71
2023-01-05T10:50:59.267Z,51.40
2023-01-05T10:52:31.264Z,51.33
2023-01-05T10:54:05.978Z,51.28
2023-01-05T10:55:39.071Z,51.33
2023-01-05T10:57:34.745Z,51.19
2023-01-05T10:59:09.045Z,51.01
2023-01-05T11:00:43.916Z,51.19
2023-01-05T11:02:16.131Z,51.20
2023-01-05T11:05:42.019Z,50.86
2023-01-05T11:07:13.540Z,51.29
2023-01-05T11:08:45.852Z,50.88
2023-01-05T11:10:28.248Z,50.66
2023-01-05T11:12:00.950Z,50.50
2023-01-05T11:13:37.818Z,50.26
2023-01-05T11:15:10.820Z,50.32
2023-01-05T11:16:47.003Z,50.78
2023-01-05T11:18:31.460Z,50.19
2023-01-05T11:20:03.504Z,50.31
2023-01-05T11:21:47.536Z,50.30
2023-01-05T11:23:48.355Z,50.60
2023-01-05T11:25:23.242Z,50.26
2023-01-05T11:26:55.909Z,49.84
2023-01-05T11:28:27.465Z,49.74
2023-01-05T11:30:24.827Z,49.72
2023-01-05T11:32:04.562Z,49.89
2023-01-05T11:33:36.573Z,49.46
2023-01-05T11:35:22.618Z,49.65
2023-01-05T11:36:54.927Z,49.55
2023-01-05T11:38:30.243Z,49.53
2023-01-05T11:40:02.674Z,49.47
2023-01-05T11:41:35.242Z,49.64
2023-01-05T11:43:10.119Z,49.41
2023-01-05T11:44:46.386Z,49.51
2023-01-05T11:46:18.081Z,49.71
2023-01-05T11:47:53.666Z,49.38
2023-01-05T11:49:25.287Z,49.04
2023-01-05T11:50:57.227Z,49.10
2023-01-05T11:52:38.708Z,48.70
2023-01-05T11:54:45.918Z,48.46
2023-01-05T11:56:21.625Z,48.44
2023-01-05T11:57:59.724Z,48.48
2023-01-05T11:59:32.076Z,48.47
2023-01-05T12:01:19.319Z,48.33
2023-01-05T12:02:53.855Z,48.39
2023-01-05T12:04:43.529Z,48.20
2023-01-05T12:06:18.679Z,48.08
2023-01-05T12:08:11.040Z,47.81
2023-01-05T12:09:44.833Z,47.74
2023-01-05T12:11:19.591Z,47.79
2023-01-05T12:13:03.949Z,47.65
2023-01-05T12:14:38.508Z,47.60
2023-01-05T12:16:13.224Z,47.79
2023-01-05T12:17:49.226Z,47.66
2023-01-05T12:19:38.993Z,47.16
2023-01-05T12:21:20.438Z,47.39
2023-01-05T12:23:10.888Z,47.38
2023-01-05T12:24:42.692Z,46.97
2023-01-05T12:26:27.897Z,47.01
2023-01-05T12:28:41.119Z,47.02
2023-01-05T12:34:11.143Z,46.91
2023-01-05T12:35:54.755Z,46.90
2023-01-05T12:37:42.917Z,46.66
2023-01-05T12:39:20.204Z,46.38
2023-01-05T12:40:51.733Z,46.58
2023-01-05T12:42:23.367Z,46.48
2023-01-05T12:43:55.053Z,46.50
2023-01-05T12:45:45.439Z,46.76
2023-01-05T12:47:37.094Z,46.61
2023-01-05T12:49:11.055Z,46.39
2023-01-05T12:50:46.944Z,46.62
2023-01-05T12:52:39.025Z,46.75
2023-01-05T12:54:17.552Z,46.56
2023-01-05T12:55:50.647Z,46.65
2023-01-05T12:57:39.363Z,46.52
2023-01-05T12:59:13.371Z,46.65
2023-01-05T13:00:47.898Z,46.58
2023-01-05T13:02:23.015Z,46.58
2023-01-05T13:03:59.238Z,46.37
2023-01-05T13:05:33.622Z,46.50
2023-01-05T13:07:10.009Z,45.99
2023-01-05T13:08:50.765Z,46.04
2023-01-05T13:10:39.799Z,45.87
2023-01-05T13:12:13.481Z,46.25
2023-01-05T13:13:47.283Z,45.99
2023-01-05T13:15:20.980Z,45.82
2023-01-05T13:17:02.089Z,45.88
2023-01-05T13:18:34.943Z,45.28
2023-01-05T13:20:12.689Z,45.47
2023-01-05T13:21:44.615Z,45.46
2023-01-05T13:23:36.564Z,45.28
2023-01-05T13:25:13.840Z,44.87
2023-01-05T13:26:45.490Z,45.02
2023-01-05T13:28:17.773Z,45.12
2023-01-05T13:29:50.656Z,45.01
2023-01-05T13:31:25.171Z,44.98
2023-01-05T13:33:13.051Z,45.31
2023-01-05T13:35:20.217Z,45.18
2023-01-05T13:36:51.848Z,45.37
2023-01-05T13:38:42.045Z,45.00
2023-01-05T13:40:33.013Z,45.18
2023-01-05T13:42:19.551Z,44.98
2023-01-05T13:44:06.420Z,45.04
2023-01-05T13:45:48.216Z,45.01
2023-01-05T13:47:37.504Z,45.07
2023-01-05T13:51:29.425Z,44.90
2023-01-05T13:53:01.244Z,44.80
2023-01-05T13:55:01.497Z,44.87
2023-01-05T13:56:33.711Z,45.06
2023-01-05T13:58:05.678Z,44.80
2023-01-05T13:59:46.400Z,44.71
2023-01-05T14:01:42.731Z,44.67
2023-01-05T14:03:18.168Z,44.68
2023-01-05T14:04:49.679Z,44.53
2023-01-05T14:06:21.724Z,44.54
2023-01-05T14:07:53.820Z,44.40
2023-01-05T14:09:35.441Z,44.13
2023-01-05T14:11:10.122Z,43.91
2023-01-05T14:12:43.262Z,44.01
2023-01-05T14:14:27.429Z,43.73
2023-01-05T14:15:59.193Z,43.81
2023-01-05T14:17:49.492Z,43.97
2023-01-05T14:19:21.300Z,43.76
2023-01-05T14:20:57.178Z,43.91
2023-01-05T14:22:36.856Z,43.91
2023-01-05T14:24:24.928Z,44.05
2023-01-05T14:26:02.547Z,43.84
2023-01-05T14:27:34.069Z,44.12
2023-01-05T14:29:07.230Z,43.82
2023-01-05T14:30:38.784Z,44.11
2023-01-05T14:32:11.869Z,44.03
2023-01-05T14:33:46.454Z,44.16
2023-01-05T14:35:22.950Z,43.97
2023-01-05T14:36:57.758Z,44.16
2023-01-05T14:38:29.827Z,44.46
2023-01-05T14:41:41.241Z,44.32
2023-01-05T14:43:43.573Z,44.38
2023-01-05T14:45:24.420Z,44.04
2023-01-05T14:46:56.349Z,44.34
2023-01-05T14:48:51.405Z,44.02
2023-01-05T14:50:40.111Z,44.15
2023-01-05T14:52:20.149Z,44.42
2023-01-05T14:53:52.754Z,44.05
2023-01-05T14:55:38.677Z,44.28
2023-01-05T14:57:26.703Z,44.14
2023-01-05T14:59:03.244Z,44.20
2023-01-05T15:00:37.883Z,44.36
2023-01-05T15:03:58.759Z,44.06
2023-01-05T15:05:31.277Z,44.29
2023-01-05T15:07:08.594Z,44.30
2023-01-05T15:09:00.084Z,43.90
2023-01-05T15:10:47.356Z,43.90
2023-01-05T15:12:46.608Z,43.93
2023-01-05T15:14:37.144Z,43.94
2023-01-05T15:16:09.321Z,43.95
2023-01-05T15:17:50.190Z,44.02
2023-01-05T15:19:51.610Z,44.29
2023-01-05T15:21:49.153Z,44.07
2023-01-05T15:23:24.095Z,44.32
2023-01-05T15:25:13.214Z,44.30
2023-01-05T15:26:50.685Z,44.35
2023-01-05T15:28:33.003Z,44.63
2023-01-05T15:30:14.253Z,44.66
2023-01-05T15:31:48.680Z,44.73
2023-01-05T15:33:40.191Z,44.76
2023-01-05T15:35:17.280Z,44.80
2023-01-05T15:37:07.758Z,44.92
2023-01-05T15:38:46.309Z,45.13
2023-01-05T15:40:24.372Z,45.09
2023-01-05T15:41:56.733Z,44.69
2023-01-05T15:43:29.161Z,44.75
2023-01-05T15:45:02.418Z,44.79
2023-01-05T15:46:33.986Z,45.09
2023-01-05T15:48:09.254Z,45.11
2023-01-05T15:49:41.613Z,45.13
2023-01-05T15:51:29.093Z,45.56
2023-01-05T15:53:01.306Z,45.65
2023-01-05T15:54:33.508Z,45.76
2023-01-05T15:56:07.021Z,45.81
2023-01-05T15:57:39.107Z,45.53
2023-01-05T15:59:26.398Z,45.53
2023-01-05T16:01:06.720Z,45.75
2023-01-05T16:02:38.657Z,45.60
2023-01-05T16:04:13.326Z,45.64
2023-01-05T16:05:45.887Z,45.73
2023-01-05T16:07:17.756Z,45.63
2023-01-05T16:08:50.919Z,45.31
2023-01-05T16:10:24.509Z,45.49
2023-01-05T16:11:57.827Z,46.05
2023-01-05T16:13:35.514Z,45.43
2023-01-05T16:15:11.712Z,45.54
2023-01-05T16:16:53.263Z,46.04
2023-01-05T16:18:34.459Z,45.67
2023-01-05T16:20:16.920Z,46.14
2023-01-05T16:21:49.399Z,46.58
2023-01-05T16:23:33.039Z,46.23
2023-01-05T16:25:10.734Z,46.81
2023-01-05T16:26:43.041Z,46.62
2023-01-05T16:28:17.087Z,46.26
2023-01-05T16:29:48.739Z,46.41
2023-01-05T16:31:25.655Z,46.39
2023-01-05T16:32:58.686Z,46.50
2023-01-05T16:34:32.004Z,46.24
2023-01-05T16:36:10.077Z,46.81
2023-01-05T16:37:41.725Z,46.35
2023-01-05T16:39:14.604Z,46.34
2023-01-05T16:40:46.130Z,45.97
2023-01-05T16:42:32.330Z,45.78
2023-01-05T16:44:04.029Z,46.21
2023-01-05T16:45:35.666Z,46.79
2023-01-05T16:47:08.052Z,46.72
2023-01-05T16:48:39.675Z,47.10
2023-01-05T16:50:20.478Z,46.83
2023-01-05T16:51:52.170Z,46.66
2023-01-05T16:53:24.666Z,46.91
2023-01-05T16:55:20.010Z,46.86
2023-01-05T16:57:01.514Z,46.42
2023-01-05T16:58:33.695Z,46.43
2023-01-05T17:00:19.110Z,46.84
2023-01-05T17:01:50.730Z,46.89
2023-01-05T17:03:30.167Z,47.13
2023-01-05T17:05:01.860Z,46.49
2023-01-05T17:06:33.578Z,46.71
2023-01-05T17:08:22.976Z,47.48
2023-01-05T17:09:54.556Z,47.11
2023-01-05T17:11:27.531Z,47.22
2023-01-05T17:13:04.082Z,46.65
2023-01-05T17:14:35.671Z,47.16
2023-01-05T17:16:08.092Z,46.84
2023-01-05T17:17:39.801Z,47.63
2023-01-05T17:19:15.086Z,47.50
2023-01-05T17:20:46.879Z,46.98
2023-01-05T17:22:18.672Z,47.33
2023-01-05T17:23:51.271Z,47.11
2023-01-05T17:25:23.252Z,47.49
2023-01-05T17:26:54.978Z,47.48
2023-01-05T17:28:26.524Z,47.55
2023-01-05T17:29:58.219Z,47.15
2023-01-05T17:31:29.816Z,47.25
2023-01-05T17:33:03.021Z,47.61
2023-01-05T17:34:34.654Z,47.69
2023-01-05T17:36:06.348Z,47.39
2023-01-05T17:37:38.035Z,47.48
2023-01-05T17:39:10.607Z,47.68
2023-01-05T17:40:42.329Z,47.77
2023-01-05T17:44:08.669Z,47.82
2023-01-05T17:45:41.111Z,47.86
2023-01-05T17:47:12.670Z,47.73
2023-01-05T17:48:44.275Z,47.79
2023-01-05T17:50:23.004Z,48.16
2023-01-05T17:51:54.598Z,47.43
2023-01-05T17:53:26.277Z,47.78
2023-01-05T17:54:57.857Z,47.70
2023-01-05T17:56:29.538Z,48.33
2023-01-05T17:58:01.911Z,47.90
2023-01-05T17:59:33.604Z,48.04
2023-01-05T18:01:06.321Z,47.76
2023-01-05T18:02:38.066Z,47.73
2023-01-05T18:04:10.025Z,48.27
2023-01-05T18:07:14.994Z,48.51
2023-01-05T18:08:46.583Z,48.28
2023-01-05T18:10:20.260Z,48.12
2023-01-05T18:11:52.687Z,48.58
2023-01-05T18:13:24.702Z,48.38
2023-01-05T18:14:56.360Z,48.49
2023-01-05T18:16:27.948Z,47.96
2023-01-05T18:17:59.748Z,48.46
2023-01-05T18:19:32.609Z,48.52
2023-01-05T18:21:05.443Z,48.60
2023-01-05T18:22:37.757Z,48.77
2023-01-05T18:24:09.373Z,48.58
2023-01-05T18:25:41.114Z,48.72
2023-01-05T18:27:12.817Z,48.48
2023-01-05T18:28:44.334Z,48.49
2023-01-05T18:30:16.035Z,48.49
2023-01-05T18:31:47.615Z,48.72
2023-01-05T18:33:19.267Z,48.79
2023-01-05T18:34:50.901Z,48.24
2023-01-05T18:36:22.534Z,49.08
2023-01-05T18:39:31.467Z,49.08
2023-01-05T18:41:03.081Z,48.89
2023-01-05T18:42:35.431Z,49.07
2023-01-05T18:44:07.144Z,49.04
2023-01-05T18:45:39.689Z,48.65
2023-01-05T18:47:11.609Z,48.91
2023-01-05T18:48:43.288Z,48.96
2023-01-05T18:50:15.099Z,48.75
2023-01-05T18:51:46.894Z,49.09
2023-01-05T18:53:18.870Z,49.12
2023-01-05T18:54:50.515Z,48.67
2023-01-05T18:56:22.095Z,48.38
2023-01-05T18:57:53.633Z,49.03
2023-01-05T18:59:25.151Z,49.18
2023-01-05T19:00:56.853Z,49.17
2023-01-05T19:02:29.617Z,48.96
2023-01-05T19:04:01.130Z,49.01
2023-01-05T19:05:32.708Z,49.34
2023-01-05T19:07:04.645Z,48.97
2023-01-05T19:08:36.240Z,49.01
2023-01-05T19:10:08.216Z,49.16
2023-01-05T19:11:43.518Z,49.10
2023-01-05T19:13:15.524Z,49.51
2023-01-05T19:14:47.232Z,49.51
2023-01-05T19:16:19.411Z,49.41
2023-01-05T19:17:53.446Z,49.70
2023-01-05T19:19:25.215Z,49.26
2023-01-05T19:20:57.360Z,49.69
2023-01-05T19:22:29.136Z,49.67
2023-01-05T19:24:01.095Z,49.29
2023-01-05T19:25:32.774Z,49.11
2023-01-05T19:27:04.348Z,49.03
2023-01-05T19:28:36.932Z,49.14
2023-01-05T19:30:08.821Z,49.10
2023-01-05T19:31:40.670Z,49.19
2023-01-05T19:33:12.154Z,48.79
2023-01-05T19:34:43.703Z,49.03
2023-01-05T19:36:19.554Z,49.41
2023-01-05T19:37:51.162Z,48.86
2023-01-05T19:39:23.058Z,49.06
2023-01-05T19:40:54.699Z,49.41
2023-01-05T19:42:26.274Z,49.30
2023-01-05T19:43:57.818Z,49.32
2023-01-05T19:45:29.428Z,48.97
2023-01-05T19:47:01.007Z,49.54
2023-01-05T19:48:33.124Z,49.66
2023-01-05T19:50:04.869Z,49.65
2023-01-05T19:51:36.470Z,49.31
2023-01-05T19:53:08.035Z,49.43
2023-01-05T19:54:40.066Z,49.56
2023-01-05T19:56:15.140Z,49.47
2023-01-05T19:57:46.896Z,49.41
2023-01-05T19:59:21.658Z,49.24
2023-01-05T20:00:53.209Z,49.68
2023-01-05T20:02:27.139Z,49.19
2023-01-05T20:03:58.885Z,49.88
2023-01-05T20:05:33.463Z,49.72
2023-01-05T20:07:08.207Z,49.81
2023-01-05T20:08:39.825Z,50.06
2023-01-05T20:10:11.357Z,50.07
2023-01-05T20:11:44.173Z,49.59
2023-01-05T20:13:16.066Z,49.70
2023-01-05T20:14:47.728Z,49.70
2023-01-05T20:16:19.502Z,49.46
2023-01-05T20:17:51.199Z,49.63
2023-01-05T20:19:23.206Z,49.73
2023-01-05T20:20:54.978Z,49.83
2023-01-05T20:22:26.498Z,49.69
2023-01-05T20:23:59.144Z,49.57
2023-01-05T20:25:30.775Z,49.59
2023-01-05T20:27:04.040Z,49.97
2023-01-05T20:28:35.637Z,49.80
2023-01-05T20:30:07.464Z,49.85
2023-01-05T20:31:40.482Z,49.98
2023-01-05T20:33:13.194Z,50.10
2023-01-05T20:34:45.655Z,50.11
2023-01-05T20:36:17.303Z,50.08
2023-01-05T20:37:48.934Z,49.88
2023-01-05T20:39:22.289Z,49.93
2023-01-05T20:40:54.102Z,50.07
2023-01-05T20:42:26.253Z,49.81
2023-01-05T20:43:58.015Z,50.48
2023-01-05T20:45:29.579Z,50.01
2023-01-05T20:47:03.151Z,50.35
2023-01-05T20:48:35.469Z,50.07
2023-01-05T20:50:08.317Z,50.32
2023-01-05T20:51:39.935Z,50.30
2023-01-05T20:53:11.563Z,50.06